TAF and METAR

METAR for Ugolny Airport

UHMA 180000Z 01004MPS 9999 BKN015 M08/M10 Q1012 R01/39//37 NOSIG RMK TDZ R01/01004G06MPS END R01/36004G06MPS MT OBSC QFE756/1008
Report created 18. nov 01:00
wind 8 knots from N (010°) visibility > 10km broken clouds (~75% cover) at 1500 feet Temperature -8° with dewpoint at -10° (Humidity 85.47%) Pressure 1012 hPa not measurable mm of frost is covering 51% - 100% of runway 01 and friction coefficient is 0.37

TAF for Ugolny Airport

TAF UHMA 172257Z 1800/1824 36006MPS 9999 BKN020 TEMPO 1800/1824 06006MPS 5000 -SN SCT007 BKN015
Report created 17. nov 23:57

between 18. nov 01:00 - 18. nov 01:00

wind 12 knots from N (360°) visibility > 10km broken clouds (~75% cover) at 2000 feet

temporarily between 18. nov 01:00 - 18. nov 01:00

wind 12 knots from ENE (060°) visibility 5000 meters light snow scattered clouds (~50% cover) at 700 feet broken clouds (~75% cover) at 1500 feet